X  Schlie├čen METAR Luftfahrt Wetterdaten     LDPL Pula Airport
Temperatur
84°F Temperatur
55°F Taupunkt
37% Feuchtigkeit



Wind
18 MPS
29 KM/S
8 M/S
16 KTS



80°
O
Aktuelle Wetterlage

Klar Klar
Luftdruck 1017.92 (hPa) - 30.06 (inHg)
Sichtweite 6.2 (Meile) - 10 (Km)
Flughafen
Flughafen Code LDPL

Position : Pula Airport
Entfernung: 39 (mi)

Metar:
LDPL 101000Z 08016G26KT 040V100 CAVOK 29/13 Q1018 NOSIG

Zeit: 10-08-2022 12:00 CEST